sensor_id;sensor_type;location;lat;lon;timestamp;temperature;humidity
5689;DHT22;2869;50.432;8.680;2023-02-24T00:02:26;7.50;99.90
5689;DHT22;2869;50.432;8.680;2023-02-24T00:04:53;7.50;99.90
5689;DHT22;2869;50.432;8.680;2023-02-24T00:07:20;7.50;99.90
5689;DHT22;2869;50.432;8.680;2023-02-24T00:09:47;7.50;99.90
5689;DHT22;2869;50.432;8.680;2023-02-24T00:12:15;7.50;99.90
5689;DHT22;2869;50.432;8.680;2023-02-24T00:14:43;7.50;99.90
5689;DHT22;2869;50.432;8.680;2023-02-24T00:17:10;7.50;99.90
5689;DHT22;2869;50.432;8.680;2023-02-24T00:19:40;7.50;99.90
5689;DHT22;2869;50.432;8.680;2023-02-24T00:22:08;7.50;99.90
5689;DHT22;2869;50.432;8.680;2023-02-24T00:24:35;7.50;99.90
5689;DHT22;2869;50.432;8.680;2023-02-24T00:27:03;7.40;99.90
5689;DHT22;2869;50.432;8.680;2023-02-24T00:29:32;7.40;99.90
5689;DHT22;2869;50.432;8.680;2023-02-24T00:31:59;7.40;99.90
5689;DHT22;2869;50.432;8.680;2023-02-24T00:34:27;7.40;99.90
5689;DHT22;2869;50.432;8.680;2023-02-24T00:36:56;7.40;99.90
5689;DHT22;2869;50.432;8.680;2023-02-24T00:39:23;7.40;99.90
5689;DHT22;2869;50.432;8.680;2023-02-24T00:41:53;7.40;99.90
5689;DHT22;2869;50.432;8.680;2023-02-24T00:44:22;7.30;99.90
5689;DHT22;2869;50.432;8.680;2023-02-24T00:46:49;7.30;99.90
5689;DHT22;2869;50.432;8.680;2023-02-24T00:49:18;7.30;99.90
5689;DHT22;2869;50.432;8.680;2023-02-24T00:51:46;7.40;99.90
5689;DHT22;2869;50.432;8.680;2023-02-24T00:54:15;7.40;99.90
5689;DHT22;2869;50.432;8.680;2023-02-24T00:56:45;7.40;99.90
5689;DHT22;2869;50.432;8.680;2023-02-24T00:59:13;7.40;99.90
5689;DHT22;2869;50.432;8.680;2023-02-24T01:01:41;7.40;99.90
5689;DHT22;2869;50.432;8.680;2023-02-24T01:04:10;7.40;99.90
5689;DHT22;2869;50.432;8.680;2023-02-24T01:06:38;7.40;99.90
5689;DHT22;2869;50.432;8.680;2023-02-24T01:09:05;7.40;99.90
5689;DHT22;2869;50.432;8.680;2023-02-24T01:11:38;7.40;99.90
5689;DHT22;2869;50.432;8.680;2023-02-24T01:14:24;7.40;99.90
5689;DHT22;2869;50.432;8.680;2023-02-24T01:16:52;7.40;99.90
5689;DHT22;2869;50.432;8.680;2023-02-24T01:19:21;7.30;99.90
5689;DHT22;2869;50.432;8.680;2023-02-24T01:21:48;7.30;99.90
5689;DHT22;2869;50.432;8.680;2023-02-24T01:24:17;7.30;99.90
5689;DHT22;2869;50.432;8.680;2023-02-24T01:26:45;7.30;99.90
5689;DHT22;2869;50.432;8.680;2023-02-24T01:29:12;7.30;99.90
5689;DHT22;2869;50.432;8.680;2023-02-24T01:31:40;7.30;99.90
5689;DHT22;2869;50.432;8.680;2023-02-24T01:34:07;7.30;99.90
5689;DHT22;2869;50.432;8.680;2023-02-24T01:36:36;7.40;99.90
5689;DHT22;2869;50.432;8.680;2023-02-24T01:39:04;7.30;99.90
5689;DHT22;2869;50.432;8.680;2023-02-24T01:41:36;7.30;99.90
5689;DHT22;2869;50.432;8.680;2023-02-24T01:44:06;7.30;99.90
5689;DHT22;2869;50.432;8.680;2023-02-24T01:46:35;7.20;99.90
5689;DHT22;2869;50.432;8.680;2023-02-24T01:49:05;7.20;99.90
5689;DHT22;2869;50.432;8.680;2023-02-24T01:51:37;7.20;99.90
5689;DHT22;2869;50.432;8.680;2023-02-24T01:54:07;7.20;99.90
5689;DHT22;2869;50.432;8.680;2023-02-24T01:56:35;7.20;99.90
5689;DHT22;2869;50.432;8.680;2023-02-24T01:59:03;7.20;99.90
5689;DHT22;2869;50.432;8.680;2023-02-24T02:01:30;7.20;99.90
5689;DHT22;2869;50.432;8.680;2023-02-24T02:04:16;7.10;99.90
5689;DHT22;2869;50.432;8.680;2023-02-24T02:06:44;7.10;99.90
5689;DHT22;2869;50.432;8.680;2023-02-24T02:09:13;7.00;99.90
5689;DHT22;2869;50.432;8.680;2023-02-24T02:11:40;7.00;99.90
5689;DHT22;2869;50.432;8.680;2023-02-24T02:14:08;6.90;99.90
5689;DHT22;2869;50.432;8.680;2023-02-24T02:16:52;6.90;99.90
5689;DHT22;2869;50.432;8.680;2023-02-24T02:19:44;6.80;99.90
5689;DHT22;2869;50.432;8.680;2023-02-24T02:22:31;6.80;99.90
5689;DHT22;2869;50.432;8.680;2023-02-24T02:25:08;6.70;99.90
5689;DHT22;2869;50.432;8.680;2023-02-24T02:28:04;6.80;99.90
5689;DHT22;2869;50.432;8.680;2023-02-24T02:34:15;6.60;99.90
5689;DHT22;2869;50.432;8.680;2023-02-24T02:36:54;6.60;99.90
5689;DHT22;2869;50.432;8.680;2023-02-24T02:39:30;6.50;99.90
5689;DHT22;2869;50.432;8.680;2023-02-24T02:42:04;6.50;99.90
5689;DHT22;2869;50.432;8.680;2023-02-24T02:44:46;6.50;99.90
5689;DHT22;2869;50.432;8.680;2023-02-24T02:47:24;6.50;99.90
5689;DHT22;2869;50.432;8.680;2023-02-24T02:49:54;6.50;99.90
5689;DHT22;2869;50.432;8.680;2023-02-24T02:52:27;6.40;99.90
5689;DHT22;2869;50.432;8.680;2023-02-24T02:54:59;6.40;99.90
5689;DHT22;2869;50.432;8.680;2023-02-24T02:57:29;6.40;99.90
5689;DHT22;2869;50.432;8.680;2023-02-24T03:00:02;6.50;99.90
5689;DHT22;2869;50.432;8.680;2023-02-24T03:02:35;6.40;99.90
5689;DHT22;2869;50.432;8.680;2023-02-24T03:05:07;6.40;99.90
5689;DHT22;2869;50.432;8.680;2023-02-24T03:07:38;6.50;99.90
5689;DHT22;2869;50.432;8.680;2023-02-24T03:10:10;6.50;99.90
5689;DHT22;2869;50.432;8.680;2023-02-24T03:12:47;6.60;99.90
5689;DHT22;2869;50.432;8.680;2023-02-24T03:15:17;6.60;99.90
5689;DHT22;2869;50.432;8.680;2023-02-24T03:17:48;6.60;99.90
5689;DHT22;2869;50.432;8.680;2023-02-24T03:20:22;6.60;99.90
5689;DHT22;2869;50.432;8.680;2023-02-24T03:22:56;6.60;99.90
5689;DHT22;2869;50.432;8.680;2023-02-24T03:25:26;6.60;99.90
5689;DHT22;2869;50.432;8.680;2023-02-24T03:27:57;6.50;99.90
5689;DHT22;2869;50.432;8.680;2023-02-24T03:30:30;6.50;99.90
5689;DHT22;2869;50.432;8.680;2023-02-24T03:33:03;6.50;99.90
5689;DHT22;2869;50.432;8.680;2023-02-24T03:35:36;6.50;99.90
5689;DHT22;2869;50.432;8.680;2023-02-24T03:38:04;6.50;99.90
5689;DHT22;2869;50.432;8.680;2023-02-24T03:40:31;6.50;99.90
5689;DHT22;2869;50.432;8.680;2023-02-24T03:43:02;6.50;99.90
5689;DHT22;2869;50.432;8.680;2023-02-24T03:45:33;6.50;99.90
5689;DHT22;2869;50.432;8.680;2023-02-24T03:48:02;6.50;99.90
5689;DHT22;2869;50.432;8.680;2023-02-24T03:50:29;6.50;99.90
5689;DHT22;2869;50.432;8.680;2023-02-24T03:53:07;6.50;99.90
5689;DHT22;2869;50.432;8.680;2023-02-24T03:55:45;6.50;99.90
5689;DHT22;2869;50.432;8.680;2023-02-24T03:58:17;6.50;99.90
5689;DHT22;2869;50.432;8.680;2023-02-24T04:00:53;6.50;99.90
5689;DHT22;2869;50.432;8.680;2023-02-24T04:03:27;6.50;99.90
5689;DHT22;2869;50.432;8.680;2023-02-24T04:06:06;6.50;99.90
5689;DHT22;2869;50.432;8.680;2023-02-24T04:08:40;6.50;99.90
5689;DHT22;2869;50.432;8.680;2023-02-24T04:11:14;6.50;99.90
5689;DHT22;2869;50.432;8.680;2023-02-24T04:13:45;6.50;99.90
5689;DHT22;2869;50.432;8.680;2023-02-24T04:16:16;6.50;99.90
5689;DHT22;2869;50.432;8.680;2023-02-24T04:18:53;6.50;99.90
5689;DHT22;2869;50.432;8.680;2023-02-24T04:21:24;6.50;99.90
5689;DHT22;2869;50.432;8.680;2023-02-24T04:23:53;6.50;99.90
5689;DHT22;2869;50.432;8.680;2023-02-24T04:26:21;6.40;99.90
5689;DHT22;2869;50.432;8.680;2023-02-24T04:28:50;6.40;99.90
5689;DHT22;2869;50.432;8.680;2023-02-24T04:31:19;6.30;99.90
5689;DHT22;2869;50.432;8.680;2023-02-24T04:33:47;6.30;99.90
5689;DHT22;2869;50.432;8.680;2023-02-24T04:36:15;6.30;99.90
5689;DHT22;2869;50.432;8.680;2023-02-24T04:38:42;6.30;99.90
5689;DHT22;2869;50.432;8.680;2023-02-24T04:41:11;6.20;99.90
5689;DHT22;2869;50.432;8.680;2023-02-24T04:43:42;6.20;99.90
5689;DHT22;2869;50.432;8.680;2023-02-24T04:46:09;6.20;99.90
5689;DHT22;2869;50.432;8.680;2023-02-24T04:48:37;6.20;99.90
5689;DHT22;2869;50.432;8.680;2023-02-24T04:51:04;6.30;99.90
5689;DHT22;2869;50.432;8.680;2023-02-24T04:53:31;6.30;99.90
5689;DHT22;2869;50.432;8.680;2023-02-24T04:56:02;6.30;99.90
5689;DHT22;2869;50.432;8.680;2023-02-24T04:58:34;6.30;99.90
5689;DHT22;2869;50.432;8.680;2023-02-24T05:01:06;6.30;99.90
5689;DHT22;2869;50.432;8.680;2023-02-24T05:03:35;6.30;99.90
5689;DHT22;2869;50.432;8.680;2023-02-24T05:06:02;6.30;99.90
5689;DHT22;2869;50.432;8.680;2023-02-24T05:08:31;6.30;99.90
5689;DHT22;2869;50.432;8.680;2023-02-24T05:10:58;6.30;99.90
5689;DHT22;2869;50.432;8.680;2023-02-24T05:13:29;6.30;99.90
5689;DHT22;2869;50.432;8.680;2023-02-24T05:15:59;6.30;99.90
5689;DHT22;2869;50.432;8.680;2023-02-24T05:18:28;6.30;99.90
5689;DHT22;2869;50.432;8.680;2023-02-24T05:21:04;6.30;99.90
5689;DHT22;2869;50.432;8.680;2023-02-24T05:23:48;6.20;99.90
5689;DHT22;2869;50.432;8.680;2023-02-24T05:26:18;6.20;99.90
5689;DHT22;2869;50.432;8.680;2023-02-24T05:28:47;6.20;99.90
5689;DHT22;2869;50.432;8.680;2023-02-24T05:31:19;6.20;99.90
5689;DHT22;2869;50.432;8.680;2023-02-24T05:33:48;6.20;99.90
5689;DHT22;2869;50.432;8.680;2023-02-24T05:36:19;6.20;99.90
5689;DHT22;2869;50.432;8.680;2023-02-24T05:38:47;6.20;99.90
5689;DHT22;2869;50.432;8.680;2023-02-24T05:41:16;6.20;99.90
5689;DHT22;2869;50.432;8.680;2023-02-24T05:43:44;6.20;99.90
5689;DHT22;2869;50.432;8.680;2023-02-24T05:46:13;6.20;99.90
5689;DHT22;2869;50.432;8.680;2023-02-24T05:48:41;6.20;99.90
5689;DHT22;2869;50.432;8.680;2023-02-24T05:51:09;6.20;99.90
5689;DHT22;2869;50.432;8.680;2023-02-24T05:53:37;6.20;99.90
5689;DHT22;2869;50.432;8.680;2023-02-24T05:56:06;6.20;99.90
5689;DHT22;2869;50.432;8.680;2023-02-24T05:58:32;6.20;99.90
5689;DHT22;2869;50.432;8.680;2023-02-24T06:00:59;6.20;99.90
5689;DHT22;2869;50.432;8.680;2023-02-24T06:03:31;6.20;99.90
5689;DHT22;2869;50.432;8.680;2023-02-24T06:06:01;6.20;99.90
5689;DHT22;2869;50.432;8.680;2023-02-24T06:08:33;6.20;99.90
5689;DHT22;2869;50.432;8.680;2023-02-24T06:11:07;6.20;99.90
5689;DHT22;2869;50.432;8.680;2023-02-24T06:13:35;6.20;99.90
5689;DHT22;2869;50.432;8.680;2023-02-24T06:16:01;6.20;99.90
5689;DHT22;2869;50.432;8.680;2023-02-24T06:18:28;6.30;99.90
5689;DHT22;2869;50.432;8.680;2023-02-24T06:20:55;6.30;99.90
5689;DHT22;2869;50.432;8.680;2023-02-24T06:23:22;6.30;99.90
5689;DHT22;2869;50.432;8.680;2023-02-24T06:25:51;6.20;99.90
5689;DHT22;2869;50.432;8.680;2023-02-24T06:28:22;6.20;99.90
5689;DHT22;2869;50.432;8.680;2023-02-24T06:30:49;6.20;99.90
5689;DHT22;2869;50.432;8.680;2023-02-24T06:33:15;6.20;99.90
5689;DHT22;2869;50.432;8.680;2023-02-24T06:35:42;6.20;99.90
5689;DHT22;2869;50.432;8.680;2023-02-24T06:38:09;6.20;99.90
5689;DHT22;2869;50.432;8.680;2023-02-24T06:40:37;6.20;99.90
5689;DHT22;2869;50.432;8.680;2023-02-24T06:43:04;6.20;99.90
5689;DHT22;2869;50.432;8.680;2023-02-24T06:45:31;6.20;99.90
5689;DHT22;2869;50.432;8.680;2023-02-24T06:47:58;6.20;99.90
5689;DHT22;2869;50.432;8.680;2023-02-24T06:50:25;6.20;99.90
5689;DHT22;2869;50.432;8.680;2023-02-24T06:52:54;6.20;99.90
5689;DHT22;2869;50.432;8.680;2023-02-24T06:55:22;6.20;99.90
5689;DHT22;2869;50.432;8.680;2023-02-24T06:57:55;6.20;99.90
5689;DHT22;2869;50.432;8.680;2023-02-24T07:00:26;6.20;99.90
5689;DHT22;2869;50.432;8.680;2023-02-24T07:03:04;6.20;99.90
5689;DHT22;2869;50.432;8.680;2023-02-24T07:05:43;6.20;99.90
5689;DHT22;2869;50.432;8.680;2023-02-24T07:08:18;6.70;99.90
5689;DHT22;2869;50.432;8.680;2023-02-24T07:10:51;7.00;99.90
5689;DHT22;2869;50.432;8.680;2023-02-24T07:13:19;7.20;99.90
5689;DHT22;2869;50.432;8.680;2023-02-24T07:15:46;7.50;99.90
5689;DHT22;2869;50.432;8.680;2023-02-24T07:18:14;7.50;99.90
5689;DHT22;2869;50.432;8.680;2023-02-24T07:20:42;7.40;99.90
5689;DHT22;2869;50.432;8.680;2023-02-24T07:23:11;7.20;99.90
5689;DHT22;2869;50.432;8.680;2023-02-24T07:25:38;7.00;99.90
5689;DHT22;2869;50.432;8.680;2023-02-24T07:28:08;6.90;99.90
5689;DHT22;2869;50.432;8.680;2023-02-24T07:30:37;6.80;99.90
5689;DHT22;2869;50.432;8.680;2023-02-24T07:33:04;6.70;99.90
5689;DHT22;2869;50.432;8.680;2023-02-24T07:35:31;6.70;99.90
5689;DHT22;2869;50.432;8.680;2023-02-24T07:37:59;6.60;99.90
5689;DHT22;2869;50.432;8.680;2023-02-24T07:40:29;6.60;99.90
5689;DHT22;2869;50.432;8.680;2023-02-24T07:42:58;6.60;99.90
5689;DHT22;2869;50.432;8.680;2023-02-24T07:45:24;6.60;99.90
5689;DHT22;2869;50.432;8.680;2023-02-24T07:47:52;6.60;99.90
5689;DHT22;2869;50.432;8.680;2023-02-24T07:50:19;6.60;99.90
5689;DHT22;2869;50.432;8.680;2023-02-24T07:52:46;6.60;99.90
5689;DHT22;2869;50.432;8.680;2023-02-24T07:55:14;6.70;99.90
5689;DHT22;2869;50.432;8.680;2023-02-24T07:57:41;6.70;99.90
5689;DHT22;2869;50.432;8.680;2023-02-24T08:00:12;6.80;99.90
5689;DHT22;2869;50.432;8.680;2023-02-24T08:02:44;6.90;99.90
5689;DHT22;2869;50.432;8.680;2023-02-24T08:05:12;6.90;99.90
5689;DHT22;2869;50.432;8.680;2023-02-24T08:07:39;6.90;99.90
5689;DHT22;2869;50.432;8.680;2023-02-24T08:10:08;6.90;99.90
5689;DHT22;2869;50.432;8.680;2023-02-24T08:12:39;6.90;99.90
5689;DHT22;2869;50.432;8.680;2023-02-24T08:15:08;7.00;99.90
5689;DHT22;2869;50.432;8.680;2023-02-24T08:17:41;7.00;99.90
5689;DHT22;2869;50.432;8.680;2023-02-24T08:20:10;7.10;99.90
5689;DHT22;2869;50.432;8.680;2023-02-24T08:22:52;7.20;99.90
5689;DHT22;2869;50.432;8.680;2023-02-24T08:25:20;7.30;99.90
5689;DHT22;2869;50.432;8.680;2023-02-24T08:27:49;7.40;99.90
5689;DHT22;2869;50.432;8.680;2023-02-24T08:30:20;7.30;99.90
5689;DHT22;2869;50.432;8.680;2023-02-24T08:32:50;7.40;99.90
5689;DHT22;2869;50.432;8.680;2023-02-24T08:35:22;7.40;99.90
5689;DHT22;2869;50.432;8.680;2023-02-24T08:37:53;7.40;99.90
5689;DHT22;2869;50.432;8.680;2023-02-24T08:40:22;7.40;99.90
5689;DHT22;2869;50.432;8.680;2023-02-24T08:43:05;7.40;99.90
5689;DHT22;2869;50.432;8.680;2023-02-24T08:45:42;7.50;99.90
5689;DHT22;2869;50.432;8.680;2023-02-24T08:48:10;7.60;99.90
5689;DHT22;2869;50.432;8.680;2023-02-24T08:50:53;7.60;99.90
5689;DHT22;2869;50.432;8.680;2023-02-24T08:53:22;7.70;99.90
5689;DHT22;2869;50.432;8.680;2023-02-24T08:55:54;7.80;99.90
5689;DHT22;2869;50.432;8.680;2023-02-24T08:58:21;7.80;99.90
5689;DHT22;2869;50.432;8.680;2023-02-24T09:00:51;7.80;99.90
5689;DHT22;2869;50.432;8.680;2023-02-24T09:03:21;8.00;99.90
5689;DHT22;2869;50.432;8.680;2023-02-24T09:05:58;8.50;99.90
5689;DHT22;2869;50.432;8.680;2023-02-24T09:08:26;9.20;99.90
5689;DHT22;2869;50.432;8.680;2023-02-24T09:10:58;9.70;99.90
5689;DHT22;2869;50.432;8.680;2023-02-24T09:13:25;10.20;99.90
5689;DHT22;2869;50.432;8.680;2023-02-24T09:15:58;10.80;99.90
5689;DHT22;2869;50.432;8.680;2023-02-24T09:18:25;11.20;99.90
5689;DHT22;2869;50.432;8.680;2023-02-24T09:20:55;11.60;99.90
5689;DHT22;2869;50.432;8.680;2023-02-24T09:23:41;11.80;99.90
5689;DHT22;2869;50.432;8.680;2023-02-24T09:26:11;11.90;99.90
5689;DHT22;2869;50.432;8.680;2023-02-24T09:28:39;12.00;99.90
5689;DHT22;2869;50.432;8.680;2023-02-24T09:31:14;12.10;99.90
5689;DHT22;2869;50.432;8.680;2023-02-24T09:33:42;12.20;99.90
5689;DHT22;2869;50.432;8.680;2023-02-24T09:36:16;12.40;99.90
5689;DHT22;2869;50.432;8.680;2023-02-24T09:38:48;12.20;99.90
5689;DHT22;2869;50.432;8.680;2023-02-24T09:41:35;11.40;99.90
5689;DHT22;2869;50.432;8.680;2023-02-24T09:44:24;11.00;99.90
5689;DHT22;2869;50.432;8.680;2023-02-24T09:46:54;10.60;99.90
5689;DHT22;2869;50.432;8.680;2023-02-24T09:49:26;10.70;99.90
5689;DHT22;2869;50.432;8.680;2023-02-24T09:52:07;10.90;99.90
5689;DHT22;2869;50.432;8.680;2023-02-24T09:54:43;10.60;99.90
5689;DHT22;2869;50.432;8.680;2023-02-24T09:57:41;9.90;99.90
5689;DHT22;2869;50.432;8.680;2023-02-24T10:00:34;9.50;99.90
5689;DHT22;2869;50.432;8.680;2023-02-24T10:03:12;9.20;99.90
5689;DHT22;2869;50.432;8.680;2023-02-24T10:05:50;9.30;99.90
5689;DHT22;2869;50.432;8.680;2023-02-24T10:08:30;9.90;99.90
5689;DHT22;2869;50.432;8.680;2023-02-24T10:11:00;10.50;99.90
5689;DHT22;2869;50.432;8.680;2023-02-24T10:13:35;10.50;99.90
5689;DHT22;2869;50.432;8.680;2023-02-24T10:16:04;9.80;99.90
5689;DHT22;2869;50.432;8.680;2023-02-24T10:18:39;9.40;99.90
5689;DHT22;2869;50.432;8.680;2023-02-24T10:21:19;9.30;99.90
5689;DHT22;2869;50.432;8.680;2023-02-24T10:24:03;9.30;99.90
5689;DHT22;2869;50.432;8.680;2023-02-24T10:26:37;9.00;99.90
5689;DHT22;2869;50.432;8.680;2023-02-24T10:29:17;8.70;99.90
5689;DHT22;2869;50.432;8.680;2023-02-24T10:31:48;8.70;99.90
5689;DHT22;2869;50.432;8.680;2023-02-24T10:34:23;8.40;99.90
5689;DHT22;2869;50.432;8.680;2023-02-24T10:36:56;8.20;99.90
5689;DHT22;2869;50.432;8.680;2023-02-24T10:39:25;8.30;99.90
5689;DHT22;2869;50.432;8.680;2023-02-24T10:42:00;8.30;99.90
5689;DHT22;2869;50.432;8.680;2023-02-24T10:44:42;8.30;99.90
5689;DHT22;2869;50.432;8.680;2023-02-24T10:47:17;8.30;99.90
5689;DHT22;2869;50.432;8.680;2023-02-24T10:49:46;8.40;99.90
5689;DHT22;2869;50.432;8.680;2023-02-24T10:52:24;8.50;99.90
5689;DHT22;2869;50.432;8.680;2023-02-24T10:55:23;8.50;99.90
5689;DHT22;2869;50.432;8.680;2023-02-24T10:57:58;8.60;99.90
5689;DHT22;2869;50.432;8.680;2023-02-24T11:00:37;8.70;99.90
5689;DHT22;2869;50.432;8.680;2023-02-24T11:03:21;8.70;99.90
5689;DHT22;2869;50.432;8.680;2023-02-24T11:06:00;8.80;99.90
5689;DHT22;2869;50.432;8.680;2023-02-24T11:08:44;8.90;99.90
5689;DHT22;2869;50.432;8.680;2023-02-24T11:11:33;8.80;99.90
5689;DHT22;2869;50.432;8.680;2023-02-24T11:14:23;8.60;99.90
5689;DHT22;2869;50.432;8.680;2023-02-24T11:17:18;8.60;99.90
5689;DHT22;2869;50.432;8.680;2023-02-24T11:19:47;8.20;99.90
5689;DHT22;2869;50.432;8.680;2023-02-24T11:22:21;8.10;99.90
5689;DHT22;2869;50.432;8.680;2023-02-24T11:24:49;8.00;99.90
5689;DHT22;2869;50.432;8.680;2023-02-24T11:27:20;8.00;99.90
5689;DHT22;2869;50.432;8.680;2023-02-24T11:30:06;8.00;99.90
5689;DHT22;2869;50.432;8.680;2023-02-24T11:32:58;8.10;99.90
5689;DHT22;2869;50.432;8.680;2023-02-24T11:35:32;8.10;99.90
5689;DHT22;2869;50.432;8.680;2023-02-24T11:38:06;8.20;99.90
5689;DHT22;2869;50.432;8.680;2023-02-24T11:40:40;8.00;99.90
5689;DHT22;2869;50.432;8.680;2023-02-24T11:43:11;8.00;99.90
5689;DHT22;2869;50.432;8.680;2023-02-24T11:45:45;8.00;99.90
5689;DHT22;2869;50.432;8.680;2023-02-24T11:48:17;7.80;99.90
5689;DHT22;2869;50.432;8.680;2023-02-24T11:50:48;7.70;99.90
5689;DHT22;2869;50.432;8.680;2023-02-24T11:53:24;7.80;99.90
5689;DHT22;2869;50.432;8.680;2023-02-24T11:55:56;7.90;99.90
5689;DHT22;2869;50.432;8.680;2023-02-24T11:58:29;7.90;99.90
5689;DHT22;2869;50.432;8.680;2023-02-24T12:01:02;8.00;99.90
5689;DHT22;2869;50.432;8.680;2023-02-24T12:03:36;8.00;99.90
5689;DHT22;2869;50.432;8.680;2023-02-24T12:06:18;8.00;99.90
5689;DHT22;2869;50.432;8.680;2023-02-24T12:08:49;7.90;99.90
5689;DHT22;2869;50.432;8.680;2023-02-24T12:11:24;7.80;99.90
5689;DHT22;2869;50.432;8.680;2023-02-24T12:14:01;7.80;99.90
5689;DHT22;2869;50.432;8.680;2023-02-24T12:16:36;7.60;99.90
5689;DHT22;2869;50.432;8.680;2023-02-24T12:19:12;7.60;99.90
5689;DHT22;2869;50.432;8.680;2023-02-24T12:21:45;7.60;99.90
5689;DHT22;2869;50.432;8.680;2023-02-24T12:24:14;7.90;99.90
5689;DHT22;2869;50.432;8.680;2023-02-24T12:26:46;7.70;99.90
5689;DHT22;2869;50.432;8.680;2023-02-24T12:29:33;7.60;99.90
5689;DHT22;2869;50.432;8.680;2023-02-24T12:32:16;7.70;99.90
5689;DHT22;2869;50.432;8.680;2023-02-24T12:34:53;7.80;99.90
5689;DHT22;2869;50.432;8.680;2023-02-24T12:40:19;8.10;99.90
5689;DHT22;2869;50.432;8.680;2023-02-24T12:42:59;8.10;99.90
5689;DHT22;2869;50.432;8.680;2023-02-24T12:45:37;7.90;99.90
5689;DHT22;2869;50.432;8.680;2023-02-24T12:48:13;7.80;99.90
5689;DHT22;2869;50.432;8.680;2023-02-24T12:50:48;7.60;99.90
5689;DHT22;2869;50.432;8.680;2023-02-24T12:53:21;7.40;99.90
5689;DHT22;2869;50.432;8.680;2023-02-24T12:55:55;7.30;99.90
5689;DHT22;2869;50.432;8.680;2023-02-24T12:58:25;7.40;99.90
5689;DHT22;2869;50.432;8.680;2023-02-24T13:01:01;7.50;99.90
5689;DHT22;2869;50.432;8.680;2023-02-24T13:03:57;7.50;99.90
5689;DHT22;2869;50.432;8.680;2023-02-24T13:06:36;7.50;99.90
5689;DHT22;2869;50.432;8.680;2023-02-24T13:09:12;7.50;99.90
5689;DHT22;2869;50.432;8.680;2023-02-24T13:11:47;7.40;99.90
5689;DHT22;2869;50.432;8.680;2023-02-24T13:14:19;7.40;99.90
5689;DHT22;2869;50.432;8.680;2023-02-24T13:16:47;7.40;99.90
5689;DHT22;2869;50.432;8.680;2023-02-24T13:19:21;7.40;99.90
5689;DHT22;2869;50.432;8.680;2023-02-24T13:21:55;7.40;99.90
5689;DHT22;2869;50.432;8.680;2023-02-24T13:24:23;7.50;99.90
5689;DHT22;2869;50.432;8.680;2023-02-24T13:26:50;7.50;99.90
5689;DHT22;2869;50.432;8.680;2023-02-24T13:29:17;7.50;99.90
5689;DHT22;2869;50.432;8.680;2023-02-24T13:31:45;7.50;99.90
5689;DHT22;2869;50.432;8.680;2023-02-24T13:34:26;7.60;99.90
5689;DHT22;2869;50.432;8.680;2023-02-24T13:36:55;7.60;99.90
5689;DHT22;2869;50.432;8.680;2023-02-24T13:39:24;7.50;99.90
5689;DHT22;2869;50.432;8.680;2023-02-24T13:42:04;7.40;99.90
5689;DHT22;2869;50.432;8.680;2023-02-24T13:44:32;7.30;99.90
5689;DHT22;2869;50.432;8.680;2023-02-24T13:50:17;7.30;99.90
5689;DHT22;2869;50.432;8.680;2023-02-24T13:56:08;7.30;99.90
5689;DHT22;2869;50.432;8.680;2023-02-24T13:58:50;7.30;99.90
5689;DHT22;2869;50.432;8.680;2023-02-24T14:01:21;7.30;99.90
5689;DHT22;2869;50.432;8.680;2023-02-24T14:04:04;7.30;99.90
5689;DHT22;2869;50.432;8.680;2023-02-24T14:06:31;7.30;99.90
5689;DHT22;2869;50.432;8.680;2023-02-24T14:09:01;7.30;99.90
5689;DHT22;2869;50.432;8.680;2023-02-24T14:11:33;7.30;99.90
5689;DHT22;2869;50.432;8.680;2023-02-24T14:14:01;7.20;99.90
5689;DHT22;2869;50.432;8.680;2023-02-24T14:16:31;7.20;99.90
5689;DHT22;2869;50.432;8.680;2023-02-24T14:19:01;7.20;99.90
5689;DHT22;2869;50.432;8.680;2023-02-24T14:21:30;7.10;99.90
5689;DHT22;2869;50.432;8.680;2023-02-24T14:24:00;7.10;99.90
5689;DHT22;2869;50.432;8.680;2023-02-24T14:26:29;7.10;99.90
5689;DHT22;2869;50.432;8.680;2023-02-24T14:28:59;7.10;99.90
5689;DHT22;2869;50.432;8.680;2023-02-24T14:31:27;7.00;99.90
5689;DHT22;2869;50.432;8.680;2023-02-24T14:33:57;6.90;99.90
5689;DHT22;2869;50.432;8.680;2023-02-24T14:36:27;6.90;99.90
5689;DHT22;2869;50.432;8.680;2023-02-24T14:39:05;6.90;99.90
5689;DHT22;2869;50.432;8.680;2023-02-24T14:41:33;6.90;99.90
5689;DHT22;2869;50.432;8.680;2023-02-24T14:44:07;6.80;99.90
5689;DHT22;2869;50.432;8.680;2023-02-24T14:46:48;6.80;99.90
5689;DHT22;2869;50.432;8.680;2023-02-24T14:49:18;6.70;99.90
5689;DHT22;2869;50.432;8.680;2023-02-24T14:51:46;6.50;99.90
5689;DHT22;2869;50.432;8.680;2023-02-24T14:54:20;6.40;99.90
5689;DHT22;2869;50.432;8.680;2023-02-24T14:56:48;6.40;99.90
5689;DHT22;2869;50.432;8.680;2023-02-24T14:59:17;6.20;99.90
5689;DHT22;2869;50.432;8.680;2023-02-24T15:01:47;6.20;99.90
5689;DHT22;2869;50.432;8.680;2023-02-24T15:04:23;6.20;99.90
5689;DHT22;2869;50.432;8.680;2023-02-24T15:06:51;6.20;99.90
5689;DHT22;2869;50.432;8.680;2023-02-24T15:09:20;6.20;99.90
5689;DHT22;2869;50.432;8.680;2023-02-24T15:11:49;6.10;99.90
5689;DHT22;2869;50.432;8.680;2023-02-24T15:14:20;6.10;99.90
5689;DHT22;2869;50.432;8.680;2023-02-24T15:16:49;6.00;99.90
5689;DHT22;2869;50.432;8.680;2023-02-24T15:19:24;6.00;99.90
5689;DHT22;2869;50.432;8.680;2023-02-24T15:21:52;5.80;99.90
5689;DHT22;2869;50.432;8.680;2023-02-24T15:24:25;5.70;99.90
5689;DHT22;2869;50.432;8.680;2023-02-24T15:26:53;5.50;99.90
5689;DHT22;2869;50.432;8.680;2023-02-24T15:29:21;5.40;99.90
5689;DHT22;2869;50.432;8.680;2023-02-24T15:31:51;5.30;99.90
5689;DHT22;2869;50.432;8.680;2023-02-24T15:34:20;5.30;99.90
5689;DHT22;2869;50.432;8.680;2023-02-24T15:39:26;5.00;99.90
5689;DHT22;2869;50.432;8.680;2023-02-24T15:42:05;4.90;99.90
5689;DHT22;2869;50.432;8.680;2023-02-24T15:44:33;4.90;99.90
5689;DHT22;2869;50.432;8.680;2023-02-24T15:47:18;4.90;99.90
5689;DHT22;2869;50.432;8.680;2023-02-24T15:49:46;4.80;99.90
5689;DHT22;2869;50.432;8.680;2023-02-24T15:52:13;4.80;99.90
5689;DHT22;2869;50.432;8.680;2023-02-24T15:54:42;4.80;99.90
5689;DHT22;2869;50.432;8.680;2023-02-24T15:57:09;4.80;99.90
5689;DHT22;2869;50.432;8.680;2023-02-24T15:59:37;4.70;99.90
5689;DHT22;2869;50.432;8.680;2023-02-24T16:02:11;4.70;99.90
5689;DHT22;2869;50.432;8.680;2023-02-24T16:04:38;4.70;99.90
5689;DHT22;2869;50.432;8.680;2023-02-24T16:07:05;4.70;99.90
5689;DHT22;2869;50.432;8.680;2023-02-24T16:09:35;4.70;99.90
5689;DHT22;2869;50.432;8.680;2023-02-24T16:12:07;4.60;99.90
5689;DHT22;2869;50.432;8.680;2023-02-24T16:14:35;4.60;99.90
5689;DHT22;2869;50.432;8.680;2023-02-24T16:17:06;4.60;99.90
5689;DHT22;2869;50.432;8.680;2023-02-24T16:19:33;4.60;99.90
5689;DHT22;2869;50.432;8.680;2023-02-24T16:22:01;4.60;99.90
5689;DHT22;2869;50.432;8.680;2023-02-24T16:24:28;4.50;99.90
5689;DHT22;2869;50.432;8.680;2023-02-24T16:26:55;4.50;99.90
5689;DHT22;2869;50.432;8.680;2023-02-24T16:29:23;4.50;99.90
5689;DHT22;2869;50.432;8.680;2023-02-24T16:31:49;4.50;99.90
5689;DHT22;2869;50.432;8.680;2023-02-24T16:34:16;4.50;99.90
5689;DHT22;2869;50.432;8.680;2023-02-24T16:36:43;4.50;99.90
5689;DHT22;2869;50.432;8.680;2023-02-24T16:39:12;4.50;99.90
5689;DHT22;2869;50.432;8.680;2023-02-24T16:41:39;4.50;99.90
5689;DHT22;2869;50.432;8.680;2023-02-24T16:44:05;4.40;99.90
5689;DHT22;2869;50.432;8.680;2023-02-24T16:46:37;4.40;99.90
5689;DHT22;2869;50.432;8.680;2023-02-24T16:49:07;4.50;99.90
5689;DHT22;2869;50.432;8.680;2023-02-24T16:51:35;4.40;99.90
5689;DHT22;2869;50.432;8.680;2023-02-24T16:54:03;4.40;99.90
5689;DHT22;2869;50.432;8.680;2023-02-24T16:56:30;4.30;99.90
5689;DHT22;2869;50.432;8.680;2023-02-24T16:58:57;4.30;99.90
5689;DHT22;2869;50.432;8.680;2023-02-24T17:01:23;4.30;99.90
5689;DHT22;2869;50.432;8.680;2023-02-24T17:03:52;4.30;99.90